sensor_id;sensor_type;location;lat;lon;timestamp;P1;durP1;ratioP1;P2;durP2;ratioP2
3704;SDS011;1868;48.918;9.438;2023-08-30T00:01:32;4.77;;;4.20;;
3704;SDS011;1868;48.918;9.438;2023-08-30T00:04:02;4.20;;;3.90;;
3704;SDS011;1868;48.918;9.438;2023-08-30T00:06:32;4.10;;;3.80;;
3704;SDS011;1868;48.918;9.438;2023-08-30T00:09:01;5.00;;;3.90;;
3704;SDS011;1868;48.918;9.438;2023-08-30T00:11:32;6.07;;;4.23;;
3704;SDS011;1868;48.918;9.438;2023-08-30T00:14:04;3.90;;;3.50;;
3704;SDS011;1868;48.918;9.438;2023-08-30T00:16:35;3.77;;;3.50;;
3704;SDS011;1868;48.918;9.438;2023-08-30T00:19:06;4.47;;;4.17;;
3704;SDS011;1868;48.918;9.438;2023-08-30T00:21:35;4.00;;;3.70;;
3704;SDS011;1868;48.918;9.438;2023-08-30T00:24:04;4.30;;;3.90;;
3704;SDS011;1868;48.918;9.438;2023-08-30T00:26:38;4.63;;;4.33;;
3704;SDS011;1868;48.918;9.438;2023-08-30T00:29:07;4.13;;;3.93;;
3704;SDS011;1868;48.918;9.438;2023-08-30T00:31:37;4.07;;;3.80;;
3704;SDS011;1868;48.918;9.438;2023-08-30T00:34:07;3.07;;;2.90;;
3704;SDS011;1868;48.918;9.438;2023-08-30T00:36:36;5.83;;;3.97;;
3704;SDS011;1868;48.918;9.438;2023-08-30T00:39:05;5.10;;;4.70;;
3704;SDS011;1868;48.918;9.438;2023-08-30T00:41:35;4.90;;;4.60;;
3704;SDS011;1868;48.918;9.438;2023-08-30T00:44:10;5.53;;;5.13;;
3704;SDS011;1868;48.918;9.438;2023-08-30T00:46:39;4.90;;;4.50;;
3704;SDS011;1868;48.918;9.438;2023-08-30T00:49:11;4.00;;;3.70;;
3704;SDS011;1868;48.918;9.438;2023-08-30T00:51:43;3.70;;;3.50;;
3704;SDS011;1868;48.918;9.438;2023-08-30T00:54:13;4.30;;;4.03;;
3704;SDS011;1868;48.918;9.438;2023-08-30T00:56:43;4.80;;;3.83;;
3704;SDS011;1868;48.918;9.438;2023-08-30T01:27:55;4.72;;;4.35;;
3704;SDS011;1868;48.918;9.438;2023-08-30T01:30:26;5.80;;;4.87;;
3704;SDS011;1868;48.918;9.438;2023-08-30T01:32:59;4.70;;;4.40;;
3704;SDS011;1868;48.918;9.438;2023-08-30T01:35:30;4.70;;;4.30;;
3704;SDS011;1868;48.918;9.438;2023-08-30T01:38:07;4.77;;;4.37;;
3704;SDS011;1868;48.918;9.438;2023-08-30T01:40:39;3.93;;;3.67;;
3704;SDS011;1868;48.918;9.438;2023-08-30T01:43:11;4.53;;;4.13;;
3704;SDS011;1868;48.918;9.438;2023-08-30T01:45:43;4.23;;;3.93;;
3704;SDS011;1868;48.918;9.438;2023-08-30T01:48:13;4.20;;;3.90;;
3704;SDS011;1868;48.918;9.438;2023-08-30T01:50:46;4.47;;;4.07;;
3704;SDS011;1868;48.918;9.438;2023-08-30T01:53:16;4.67;;;4.37;;
3704;SDS011;1868;48.918;9.438;2023-08-30T01:55:48;4.40;;;4.10;;
3704;SDS011;1868;48.918;9.438;2023-08-30T01:58:19;4.30;;;3.90;;
3704;SDS011;1868;48.918;9.438;2023-08-30T02:00:50;18.70;;;5.33;;
3704;SDS011;1868;48.918;9.438;2023-08-30T02:27:34;5.63;;;5.27;;
3704;SDS011;1868;48.918;9.438;2023-08-30T02:30:05;5.40;;;5.00;;
3704;SDS011;1868;48.918;9.438;2023-08-30T02:32:35;5.10;;;4.80;;
3704;SDS011;1868;48.918;9.438;2023-08-30T02:35:08;5.10;;;4.80;;
3704;SDS011;1868;48.918;9.438;2023-08-30T02:37:41;4.77;;;4.47;;
3704;SDS011;1868;48.918;9.438;2023-08-30T02:40:31;4.27;;;4.07;;
3704;SDS011;1868;48.918;9.438;2023-08-30T02:46:00;4.23;;;4.03;;
3704;SDS011;1868;48.918;9.438;2023-08-30T02:48:32;4.90;;;4.60;;
3704;SDS011;1868;48.918;9.438;2023-08-30T02:51:02;5.17;;;4.77;;
3704;SDS011;1868;48.918;9.438;2023-08-30T02:53:33;4.90;;;4.60;;
3704;SDS011;1868;48.918;9.438;2023-08-30T02:56:02;5.50;;;5.10;;
3704;SDS011;1868;48.918;9.438;2023-08-30T02:58:32;4.07;;;3.87;;
3704;SDS011;1868;48.918;9.438;2023-08-30T03:01:04;4.87;;;4.57;;
3704;SDS011;1868;48.918;9.438;2023-08-30T03:03:34;5.37;;;4.97;;
3704;SDS011;1868;48.918;9.438;2023-08-30T03:06:05;4.40;;;4.10;;
3704;SDS011;1868;48.918;9.438;2023-08-30T03:08:34;4.17;;;3.97;;
3704;SDS011;1868;48.918;9.438;2023-08-30T03:11:09;4.67;;;4.40;;
3704;SDS011;1868;48.918;9.438;2023-08-30T03:13:48;4.33;;;4.03;;
3704;SDS011;1868;48.918;9.438;2023-08-30T03:16:19;3.83;;;3.63;;
3704;SDS011;1868;48.918;9.438;2023-08-30T03:18:49;4.20;;;3.50;;
3704;SDS011;1868;48.918;9.438;2023-08-30T03:21:18;4.37;;;4.07;;
3704;SDS011;1868;48.918;9.438;2023-08-30T03:23:47;4.20;;;4.00;;
3704;SDS011;1868;48.918;9.438;2023-08-30T03:26:19;4.40;;;4.10;;
3704;SDS011;1868;48.918;9.438;2023-08-30T03:28:49;4.37;;;4.17;;
3704;SDS011;1868;48.918;9.438;2023-08-30T03:31:20;4.67;;;4.37;;
3704;SDS011;1868;48.918;9.438;2023-08-30T03:33:51;3.57;;;3.37;;
3704;SDS011;1868;48.918;9.438;2023-08-30T03:36:21;5.40;;;5.00;;
3704;SDS011;1868;48.918;9.438;2023-08-30T03:38:53;4.87;;;4.57;;
3704;SDS011;1868;48.918;9.438;2023-08-30T03:41:26;4.40;;;4.20;;
3704;SDS011;1868;48.918;9.438;2023-08-30T03:43:59;5.03;;;4.53;;
3704;SDS011;1868;48.918;9.438;2023-08-30T03:46:31;4.93;;;4.63;;
3704;SDS011;1868;48.918;9.438;2023-08-30T03:49:02;5.20;;;4.90;;
3704;SDS011;1868;48.918;9.438;2023-08-30T03:51:32;5.30;;;4.90;;
3704;SDS011;1868;48.918;9.438;2023-08-30T03:54:01;8.33;;;5.70;;
3704;SDS011;1868;48.918;9.438;2023-08-30T03:56:31;5.90;;;5.50;;
3704;SDS011;1868;48.918;9.438;2023-08-30T03:59:00;5.50;;;5.10;;
3704;SDS011;1868;48.918;9.438;2023-08-30T04:01:33;4.80;;;4.50;;
3704;SDS011;1868;48.918;9.438;2023-08-30T04:04:03;5.40;;;5.00;;
3704;SDS011;1868;48.918;9.438;2023-08-30T04:06:33;6.23;;;5.60;;
3704;SDS011;1868;48.918;9.438;2023-08-30T04:09:03;6.23;;;5.83;;
3704;SDS011;1868;48.918;9.438;2023-08-30T04:11:33;5.67;;;5.27;;
3704;SDS011;1868;48.918;9.438;2023-08-30T04:14:03;5.97;;;5.57;;
3704;SDS011;1868;48.918;9.438;2023-08-30T04:16:35;5.97;;;5.57;;
3704;SDS011;1868;48.918;9.438;2023-08-30T04:19:10;5.13;;;4.73;;
3704;SDS011;1868;48.918;9.438;2023-08-30T04:21:40;3.93;;;3.73;;
3704;SDS011;1868;48.918;9.438;2023-08-30T04:24:11;4.10;;;3.80;;
3704;SDS011;1868;48.918;9.438;2023-08-30T04:26:41;3.90;;;3.70;;
3704;SDS011;1868;48.918;9.438;2023-08-30T04:29:10;7.57;;;6.70;;
3704;SDS011;1868;48.918;9.438;2023-08-30T04:31:40;7.87;;;7.10;;
3704;SDS011;1868;48.918;9.438;2023-08-30T04:34:11;4.50;;;4.20;;
3704;SDS011;1868;48.918;9.438;2023-08-30T04:36:42;4.43;;;4.13;;
3704;SDS011;1868;48.918;9.438;2023-08-30T04:39:12;4.77;;;4.47;;
3704;SDS011;1868;48.918;9.438;2023-08-30T04:41:43;4.00;;;3.80;;
3704;SDS011;1868;48.918;9.438;2023-08-30T04:44:12;4.40;;;4.10;;
3704;SDS011;1868;48.918;9.438;2023-08-30T04:46:43;3.80;;;3.60;;
3704;SDS011;1868;48.918;9.438;2023-08-30T04:49:11;4.30;;;3.90;;
3704;SDS011;1868;48.918;9.438;2023-08-30T04:51:42;4.53;;;4.23;;
3704;SDS011;1868;48.918;9.438;2023-08-30T04:54:11;4.90;;;4.60;;
3704;SDS011;1868;48.918;9.438;2023-08-30T04:56:40;4.60;;;4.30;;
3704;SDS011;1868;48.918;9.438;2023-08-30T04:59:11;4.40;;;4.10;;
3704;SDS011;1868;48.918;9.438;2023-08-30T05:01:45;4.30;;;4.00;;
3704;SDS011;1868;48.918;9.438;2023-08-30T05:04:16;4.40;;;4.20;;
3704;SDS011;1868;48.918;9.438;2023-08-30T05:06:45;4.17;;;3.90;;
3704;SDS011;1868;48.918;9.438;2023-08-30T05:09:15;4.27;;;4.00;;
3704;SDS011;1868;48.918;9.438;2023-08-30T05:11:44;4.27;;;4.07;;
3704;SDS011;1868;48.918;9.438;2023-08-30T05:14:13;3.90;;;3.70;;
3704;SDS011;1868;48.918;9.438;2023-08-30T05:16:47;5.77;;;5.37;;
3704;SDS011;1868;48.918;9.438;2023-08-30T05:19:19;4.77;;;4.47;;
3704;SDS011;1868;48.918;9.438;2023-08-30T05:21:49;4.80;;;4.50;;
3704;SDS011;1868;48.918;9.438;2023-08-30T05:24:21;4.73;;;4.43;;
3704;SDS011;1868;48.918;9.438;2023-08-30T05:26:52;4.23;;;3.93;;
3704;SDS011;1868;48.918;9.438;2023-08-30T05:29:24;5.07;;;4.70;;
3704;SDS011;1868;48.918;9.438;2023-08-30T05:31:55;4.50;;;4.20;;
3704;SDS011;1868;48.918;9.438;2023-08-30T05:34:33;5.37;;;5.07;;
3704;SDS011;1868;48.918;9.438;2023-08-30T05:37:07;4.83;;;4.53;;
3704;SDS011;1868;48.918;9.438;2023-08-30T05:40:00;5.83;;;5.37;;
3704;SDS011;1868;48.918;9.438;2023-08-30T05:42:29;4.77;;;4.47;;
3704;SDS011;1868;48.918;9.438;2023-08-30T05:44:58;5.03;;;4.73;;
3704;SDS011;1868;48.918;9.438;2023-08-30T05:47:29;4.90;;;4.60;;
3704;SDS011;1868;48.918;9.438;2023-08-30T05:49:59;4.83;;;4.43;;
3704;SDS011;1868;48.918;9.438;2023-08-30T05:52:32;5.47;;;5.10;;
3704;SDS011;1868;48.918;9.438;2023-08-30T05:55:01;4.97;;;4.67;;
3704;SDS011;1868;48.918;9.438;2023-08-30T05:57:33;5.63;;;5.13;;
3704;SDS011;1868;48.918;9.438;2023-08-30T06:00:03;7.73;;;6.20;;
3704;SDS011;1868;48.918;9.438;2023-08-30T06:02:46;9.90;;;6.20;;
3704;SDS011;1868;48.918;9.438;2023-08-30T06:05:15;21.03;;;10.30;;
3704;SDS011;1868;48.918;9.438;2023-08-30T06:07:44;34.93;;;14.53;;
3704;SDS011;1868;48.918;9.438;2023-08-30T06:10:13;51.87;;;19.27;;
3704;SDS011;1868;48.918;9.438;2023-08-30T06:12:42;41.70;;;16.30;;
3704;SDS011;1868;48.918;9.438;2023-08-30T06:15:12;45.40;;;17.50;;
3704;SDS011;1868;48.918;9.438;2023-08-30T06:17:41;26.47;;;12.07;;
3704;SDS011;1868;48.918;9.438;2023-08-30T06:20:12;45.07;;;18.30;;
3704;SDS011;1868;48.918;9.438;2023-08-30T06:22:41;183.30;;;52.13;;
3704;SDS011;1868;48.918;9.438;2023-08-30T06:25:11;212.93;;;60.97;;
3704;SDS011;1868;48.918;9.438;2023-08-30T06:27:41;136.97;;;43.43;;
3704;SDS011;1868;48.918;9.438;2023-08-30T06:30:12;103.07;;;34.80;;
3704;SDS011;1868;48.918;9.438;2023-08-30T06:32:42;61.93;;;24.63;;
3704;SDS011;1868;48.918;9.438;2023-08-30T06:35:12;26.13;;;12.97;;
3704;SDS011;1868;48.918;9.438;2023-08-30T06:37:41;29.37;;;13.23;;
3704;SDS011;1868;48.918;9.438;2023-08-30T06:40:10;59.33;;;23.17;;
3704;SDS011;1868;48.918;9.438;2023-08-30T06:42:39;54.30;;;23.87;;
3704;SDS011;1868;48.918;9.438;2023-08-30T06:45:08;38.37;;;16.03;;
3704;SDS011;1868;48.918;9.438;2023-08-30T06:47:39;36.27;;;15.20;;
3704;SDS011;1868;48.918;9.438;2023-08-30T06:50:09;29.33;;;14.07;;
3704;SDS011;1868;48.918;9.438;2023-08-30T06:52:39;31.80;;;14.13;;
3704;SDS011;1868;48.918;9.438;2023-08-30T06:55:09;41.43;;;20.47;;
3704;SDS011;1868;48.918;9.438;2023-08-30T06:57:38;48.73;;;23.13;;
3704;SDS011;1868;48.918;9.438;2023-08-30T07:00:08;50.77;;;21.53;;
3704;SDS011;1868;48.918;9.438;2023-08-30T07:02:38;38.70;;;17.73;;
3704;SDS011;1868;48.918;9.438;2023-08-30T07:05:11;51.33;;;18.83;;
3704;SDS011;1868;48.918;9.438;2023-08-30T07:07:41;32.23;;;15.83;;
3704;SDS011;1868;48.918;9.438;2023-08-30T07:10:10;25.77;;;12.83;;
3704;SDS011;1868;48.918;9.438;2023-08-30T07:12:39;15.40;;;10.23;;
3704;SDS011;1868;48.918;9.438;2023-08-30T07:15:08;15.87;;;9.03;;
3704;SDS011;1868;48.918;9.438;2023-08-30T07:17:38;21.90;;;10.07;;
3704;SDS011;1868;48.918;9.438;2023-08-30T07:20:13;13.87;;;8.40;;
3704;SDS011;1868;48.918;9.438;2023-08-30T07:22:44;15.20;;;9.67;;
3704;SDS011;1868;48.918;9.438;2023-08-30T07:25:12;13.63;;;11.77;;
3704;SDS011;1868;48.918;9.438;2023-08-30T07:27:41;17.50;;;14.27;;
3704;SDS011;1868;48.918;9.438;2023-08-30T07:30:10;14.40;;;12.93;;
3704;SDS011;1868;48.918;9.438;2023-08-30T07:32:39;15.43;;;11.90;;
3704;SDS011;1868;48.918;9.438;2023-08-30T07:35:09;10.97;;;9.90;;
3704;SDS011;1868;48.918;9.438;2023-08-30T07:37:41;10.53;;;8.57;;
3704;SDS011;1868;48.918;9.438;2023-08-30T07:40:13;7.47;;;6.77;;
3704;SDS011;1868;48.918;9.438;2023-08-30T07:42:41;6.47;;;5.87;;
3704;SDS011;1868;48.918;9.438;2023-08-30T07:45:10;6.07;;;5.63;;
3704;SDS011;1868;48.918;9.438;2023-08-30T07:47:39;6.53;;;6.00;;
3704;SDS011;1868;48.918;9.438;2023-08-30T07:50:07;5.90;;;5.10;;
3704;SDS011;1868;48.918;9.438;2023-08-30T07:52:37;4.97;;;4.60;;
3704;SDS011;1868;48.918;9.438;2023-08-30T07:55:14;5.30;;;4.90;;
3704;SDS011;1868;48.918;9.438;2023-08-30T07:57:42;5.47;;;5.07;;
3704;SDS011;1868;48.918;9.438;2023-08-30T08:00:11;5.03;;;4.73;;
3704;SDS011;1868;48.918;9.438;2023-08-30T08:02:44;5.43;;;5.03;;
3704;SDS011;1868;48.918;9.438;2023-08-30T08:05:13;5.27;;;4.87;;
3704;SDS011;1868;48.918;9.438;2023-08-30T08:07:43;5.50;;;5.10;;
3704;SDS011;1868;48.918;9.438;2023-08-30T08:10:13;5.53;;;5.07;;
3704;SDS011;1868;48.918;9.438;2023-08-30T08:12:42;4.40;;;4.10;;
3704;SDS011;1868;48.918;9.438;2023-08-30T08:15:11;3.87;;;3.57;;
3704;SDS011;1868;48.918;9.438;2023-08-30T08:17:40;3.50;;;3.20;;
3704;SDS011;1868;48.918;9.438;2023-08-30T08:20:09;3.80;;;3.50;;
3704;SDS011;1868;48.918;9.438;2023-08-30T08:22:38;4.17;;;3.77;;
3704;SDS011;1868;48.918;9.438;2023-08-30T08:25:07;4.57;;;3.47;;
3704;SDS011;1868;48.918;9.438;2023-08-30T08:27:42;3.57;;;3.33;;
3704;SDS011;1868;48.918;9.438;2023-08-30T08:30:12;3.97;;;3.50;;
3704;SDS011;1868;48.918;9.438;2023-08-30T08:32:42;3.83;;;3.63;;
3704;SDS011;1868;48.918;9.438;2023-08-30T08:35:14;2.67;;;2.47;;
3704;SDS011;1868;48.918;9.438;2023-08-30T08:37:43;2.47;;;2.37;;
3704;SDS011;1868;48.918;9.438;2023-08-30T08:40:13;5.77;;;2.90;;
3704;SDS011;1868;48.918;9.438;2023-08-30T08:42:52;6.10;;;3.33;;
3704;SDS011;1868;48.918;9.438;2023-08-30T08:45:23;2.70;;;2.50;;
3704;SDS011;1868;48.918;9.438;2023-08-30T08:47:52;3.60;;;2.93;;
3704;SDS011;1868;48.918;9.438;2023-08-30T08:50:21;2.10;;;2.00;;
3704;SDS011;1868;48.918;9.438;2023-08-30T08:52:51;3.47;;;2.57;;
3704;SDS011;1868;48.918;9.438;2023-08-30T08:55:35;2.20;;;2.10;;
3704;SDS011;1868;48.918;9.438;2023-08-30T08:58:09;2.33;;;2.13;;
3704;SDS011;1868;48.918;9.438;2023-08-30T09:00:39;2.40;;;2.20;;
3704;SDS011;1868;48.918;9.438;2023-08-30T09:03:09;1.63;;;1.53;;
3704;SDS011;1868;48.918;9.438;2023-08-30T09:05:41;1.93;;;1.60;;
3704;SDS011;1868;48.918;9.438;2023-08-30T09:08:13;2.37;;;1.73;;
3704;SDS011;1868;48.918;9.438;2023-08-30T09:10:43;2.27;;;2.17;;
3704;SDS011;1868;48.918;9.438;2023-08-30T09:13:15;3.10;;;2.40;;
3704;SDS011;1868;48.918;9.438;2023-08-30T09:15:45;1.77;;;1.67;;
3704;SDS011;1868;48.918;9.438;2023-08-30T09:18:14;2.50;;;2.40;;
3704;SDS011;1868;48.918;9.438;2023-08-30T09:20:43;2.17;;;1.97;;
3704;SDS011;1868;48.918;9.438;2023-08-30T09:23:17;1.53;;;1.50;;
3704;SDS011;1868;48.918;9.438;2023-08-30T09:25:47;2.20;;;1.80;;
3704;SDS011;1868;48.918;9.438;2023-08-30T09:28:26;1.70;;;1.67;;
3704;SDS011;1868;48.918;9.438;2023-08-30T09:30:57;2.07;;;1.97;;
3704;SDS011;1868;48.918;9.438;2023-08-30T09:33:47;2.00;;;1.87;;
3704;SDS011;1868;48.918;9.438;2023-08-30T09:36:20;2.50;;;1.73;;
3704;SDS011;1868;48.918;9.438;2023-08-30T09:38:51;4.87;;;2.03;;
3704;SDS011;1868;48.918;9.438;2023-08-30T09:41:25;2.30;;;1.70;;
3704;SDS011;1868;48.918;9.438;2023-08-30T09:43:55;2.10;;;2.00;;
3704;SDS011;1868;48.918;9.438;2023-08-30T09:46:42;1.17;;;1.07;;
3704;SDS011;1868;48.918;9.438;2023-08-30T09:49:15;4.00;;;2.10;;
3704;SDS011;1868;48.918;9.438;2023-08-30T09:51:47;1.50;;;1.40;;
3704;SDS011;1868;48.918;9.438;2023-08-30T09:54:20;1.87;;;1.50;;
3704;SDS011;1868;48.918;9.438;2023-08-30T09:56:55;1.53;;;1.43;;
3704;SDS011;1868;48.918;9.438;2023-08-30T09:59:29;1.67;;;1.40;;
3704;SDS011;1868;48.918;9.438;2023-08-30T10:02:00;2.10;;;1.27;;
3704;SDS011;1868;48.918;9.438;2023-08-30T10:04:31;1.23;;;1.13;;
3704;SDS011;1868;48.918;9.438;2023-08-30T10:07:04;1.10;;;1.10;;
3704;SDS011;1868;48.918;9.438;2023-08-30T10:09:35;2.03;;;1.30;;
3704;SDS011;1868;48.918;9.438;2023-08-30T10:12:20;2.60;;;1.40;;
3704;SDS011;1868;48.918;9.438;2023-08-30T10:14:51;1.23;;;1.23;;
3704;SDS011;1868;48.918;9.438;2023-08-30T10:17:22;1.77;;;1.23;;
3704;SDS011;1868;48.918;9.438;2023-08-30T10:19:56;1.20;;;1.20;;
3704;SDS011;1868;48.918;9.438;2023-08-30T10:22:27;1.50;;;1.40;;
3704;SDS011;1868;48.918;9.438;2023-08-30T10:24:57;1.80;;;1.03;;
3704;SDS011;1868;48.918;9.438;2023-08-30T10:27:34;0.60;;;0.60;;
3704;SDS011;1868;48.918;9.438;2023-08-30T10:30:10;3.53;;;1.07;;
3704;SDS011;1868;48.918;9.438;2023-08-30T10:32:39;0.97;;;0.93;;
3704;SDS011;1868;48.918;9.438;2023-08-30T10:35:10;0.90;;;0.90;;
3704;SDS011;1868;48.918;9.438;2023-08-30T10:37:40;4.60;;;3.33;;
3704;SDS011;1868;48.918;9.438;2023-08-30T10:40:10;2.47;;;2.27;;
3704;SDS011;1868;48.918;9.438;2023-08-30T10:42:38;1.90;;;1.30;;
3704;SDS011;1868;48.918;9.438;2023-08-30T10:45:10;2.30;;;0.80;;
3704;SDS011;1868;48.918;9.438;2023-08-30T10:47:40;1.00;;;1.00;;
3704;SDS011;1868;48.918;9.438;2023-08-30T10:50:10;0.77;;;0.77;;
3704;SDS011;1868;48.918;9.438;2023-08-30T10:52:39;1.13;;;1.00;;
3704;SDS011;1868;48.918;9.438;2023-08-30T10:55:10;1.33;;;1.00;;
3704;SDS011;1868;48.918;9.438;2023-08-30T10:57:42;1.83;;;1.37;;
3704;SDS011;1868;48.918;9.438;2023-08-30T11:00:20;1.00;;;1.00;;
3704;SDS011;1868;48.918;9.438;2023-08-30T11:02:50;3.30;;;0.90;;
3704;SDS011;1868;48.918;9.438;2023-08-30T11:05:21;1.00;;;0.80;;
3704;SDS011;1868;48.918;9.438;2023-08-30T11:07:51;2.47;;;0.70;;
3704;SDS011;1868;48.918;9.438;2023-08-30T11:10:21;0.73;;;0.73;;
3704;SDS011;1868;48.918;9.438;2023-08-30T11:12:49;0.87;;;0.83;;
3704;SDS011;1868;48.918;9.438;2023-08-30T11:15:21;0.80;;;0.80;;
3704;SDS011;1868;48.918;9.438;2023-08-30T11:17:51;0.63;;;0.63;;
3704;SDS011;1868;48.918;9.438;2023-08-30T11:20:31;0.93;;;0.90;;
3704;SDS011;1868;48.918;9.438;2023-08-30T11:22:59;1.33;;;0.83;;
3704;SDS011;1868;48.918;9.438;2023-08-30T11:25:31;1.17;;;0.77;;
3704;SDS011;1868;48.918;9.438;2023-08-30T11:28:03;1.10;;;1.00;;
3704;SDS011;1868;48.918;9.438;2023-08-30T11:30:34;0.90;;;0.90;;
3704;SDS011;1868;48.918;9.438;2023-08-30T11:33:08;0.70;;;0.70;;
3704;SDS011;1868;48.918;9.438;2023-08-30T11:35:37;1.50;;;1.10;;
3704;SDS011;1868;48.918;9.438;2023-08-30T11:38:08;0.97;;;0.87;;
3704;SDS011;1868;48.918;9.438;2023-08-30T11:40:37;0.90;;;0.90;;
3704;SDS011;1868;48.918;9.438;2023-08-30T11:43:05;2.50;;;1.13;;
3704;SDS011;1868;48.918;9.438;2023-08-30T11:45:40;1.23;;;0.90;;
3704;SDS011;1868;48.918;9.438;2023-08-30T11:48:09;0.53;;;0.53;;
3704;SDS011;1868;48.918;9.438;2023-08-30T11:50:38;1.40;;;1.27;;
3704;SDS011;1868;48.918;9.438;2023-08-30T11:53:14;0.97;;;0.93;;
3704;SDS011;1868;48.918;9.438;2023-08-30T11:55:43;0.90;;;0.90;;
3704;SDS011;1868;48.918;9.438;2023-08-30T11:58:13;0.90;;;0.90;;
3704;SDS011;1868;48.918;9.438;2023-08-30T12:00:44;0.90;;;0.90;;
3704;SDS011;1868;48.918;9.438;2023-08-30T12:03:13;1.10;;;0.90;;
3704;SDS011;1868;48.918;9.438;2023-08-30T12:05:44;1.13;;;0.93;;
3704;SDS011;1868;48.918;9.438;2023-08-30T12:08:19;1.00;;;1.00;;
3704;SDS011;1868;48.918;9.438;2023-08-30T12:10:52;1.30;;;1.20;;
3704;SDS011;1868;48.918;9.438;2023-08-30T12:13:22;1.10;;;1.00;;
3704;SDS011;1868;48.918;9.438;2023-08-30T12:15:53;0.80;;;0.70;;
3704;SDS011;1868;48.918;9.438;2023-08-30T12:18:23;1.20;;;1.10;;
3704;SDS011;1868;48.918;9.438;2023-08-30T12:20:57;1.70;;;1.40;;
3704;SDS011;1868;48.918;9.438;2023-08-30T12:23:29;1.23;;;1.10;;
3704;SDS011;1868;48.918;9.438;2023-08-30T12:26:00;1.40;;;1.30;;
3704;SDS011;1868;48.918;9.438;2023-08-30T12:28:31;1.47;;;1.17;;
3704;SDS011;1868;48.918;9.438;2023-08-30T12:31:04;1.40;;;1.13;;
3704;SDS011;1868;48.918;9.438;2023-08-30T12:33:33;1.20;;;1.10;;
3704;SDS011;1868;48.918;9.438;2023-08-30T12:36:03;6.87;;;1.80;;
3704;SDS011;1868;48.918;9.438;2023-08-30T12:38:32;3.57;;;1.73;;
3704;SDS011;1868;48.918;9.438;2023-08-30T12:41:01;1.63;;;1.30;;
3704;SDS011;1868;48.918;9.438;2023-08-30T12:43:30;2.70;;;1.77;;
3704;SDS011;1868;48.918;9.438;2023-08-30T12:45:58;1.60;;;1.50;;
3704;SDS011;1868;48.918;9.438;2023-08-30T12:48:32;3.40;;;1.77;;
3704;SDS011;1868;48.918;9.438;2023-08-30T12:51:00;3.50;;;1.70;;
3704;SDS011;1868;48.918;9.438;2023-08-30T12:53:30;3.80;;;2.50;;
3704;SDS011;1868;48.918;9.438;2023-08-30T12:56:00;2.43;;;2.27;;
3704;SDS011;1868;48.918;9.438;2023-08-30T12:58:30;1.90;;;1.80;;
3704;SDS011;1868;48.918;9.438;2023-08-30T13:00:59;2.50;;;2.30;;
3704;SDS011;1868;48.918;9.438;2023-08-30T13:03:28;3.30;;;2.00;;
3704;SDS011;1868;48.918;9.438;2023-08-30T13:05:58;5.70;;;1.90;;
3704;SDS011;1868;48.918;9.438;2023-08-30T13:08:28;6.13;;;1.60;;
3704;SDS011;1868;48.918;9.438;2023-08-30T13:10:58;2.63;;;1.87;;
3704;SDS011;1868;48.918;9.438;2023-08-30T13:13:28;1.50;;;1.40;;
3704;SDS011;1868;48.918;9.438;2023-08-30T13:15:57;1.87;;;1.77;;
3704;SDS011;1868;48.918;9.438;2023-08-30T13:18:26;1.47;;;1.37;;
3704;SDS011;1868;48.918;9.438;2023-08-30T13:20:55;1.60;;;1.40;;
3704;SDS011;1868;48.918;9.438;2023-08-30T13:23:26;3.33;;;2.03;;
3704;SDS011;1868;48.918;9.438;2023-08-30T13:25:56;1.73;;;1.70;;
3704;SDS011;1868;48.918;9.438;2023-08-30T13:28:25;2.17;;;2.07;;
3704;SDS011;1868;48.918;9.438;2023-08-30T13:30:53;2.40;;;2.10;;
3704;SDS011;1868;48.918;9.438;2023-08-30T13:33:23;4.07;;;2.80;;
3704;SDS011;1868;48.918;9.438;2023-08-30T13:35:51;2.00;;;1.90;;
3704;SDS011;1868;48.918;9.438;2023-08-30T13:38:20;1.60;;;1.50;;
3704;SDS011;1868;48.918;9.438;2023-08-30T13:40:51;1.43;;;1.33;;
3704;SDS011;1868;48.918;9.438;2023-08-30T13:43:27;1.40;;;1.30;;
3704;SDS011;1868;48.918;9.438;2023-08-30T13:45:58;1.13;;;1.10;;
3704;SDS011;1868;48.918;9.438;2023-08-30T13:48:26;1.83;;;1.40;;
3704;SDS011;1868;48.918;9.438;2023-08-30T13:50:58;2.60;;;1.00;;
3704;SDS011;1868;48.918;9.438;2023-08-30T13:53:27;1.10;;;1.10;;
3704;SDS011;1868;48.918;9.438;2023-08-30T13:55:58;1.33;;;1.10;;
3704;SDS011;1868;48.918;9.438;2023-08-30T13:58:26;1.73;;;1.17;;
3704;SDS011;1868;48.918;9.438;2023-08-30T14:00:55;1.80;;;1.20;;
3704;SDS011;1868;48.918;9.438;2023-08-30T14:03:23;1.10;;;1.00;;
3704;SDS011;1868;48.918;9.438;2023-08-30T14:05:52;2.20;;;1.30;;
3704;SDS011;1868;48.918;9.438;2023-08-30T14:08:22;1.30;;;0.97;;
3704;SDS011;1868;48.918;9.438;2023-08-30T14:10:51;1.10;;;1.10;;
3704;SDS011;1868;48.918;9.438;2023-08-30T14:13:24;1.10;;;1.10;;
3704;SDS011;1868;48.918;9.438;2023-08-30T14:15:54;1.20;;;1.10;;
3704;SDS011;1868;48.918;9.438;2023-08-30T14:18:24;1.33;;;1.20;;
3704;SDS011;1868;48.918;9.438;2023-08-30T14:20:55;2.50;;;1.03;;
3704;SDS011;1868;48.918;9.438;2023-08-30T14:23:24;1.20;;;1.10;;
3704;SDS011;1868;48.918;9.438;2023-08-30T14:25:57;1.00;;;1.00;;
3704;SDS011;1868;48.918;9.438;2023-08-30T14:28:28;1.20;;;1.13;;
3704;SDS011;1868;48.918;9.438;2023-08-30T14:30:56;1.63;;;1.50;;
3704;SDS011;1868;48.918;9.438;2023-08-30T14:33:28;1.30;;;1.20;;
3704;SDS011;1868;48.918;9.438;2023-08-30T14:35:57;0.90;;;0.90;;
3704;SDS011;1868;48.918;9.438;2023-08-30T14:38:27;1.50;;;1.40;;
3704;SDS011;1868;48.918;9.438;2023-08-30T14:40:59;1.80;;;0.80;;
3704;SDS011;1868;48.918;9.438;2023-08-30T14:43:31;1.27;;;1.20;;
3704;SDS011;1868;48.918;9.438;2023-08-30T14:46:00;1.47;;;1.37;;
3704;SDS011;1868;48.918;9.438;2023-08-30T14:48:38;0.97;;;0.97;;
3704;SDS011;1868;48.918;9.438;2023-08-30T14:51:08;0.83;;;0.83;;
3704;SDS011;1868;48.918;9.438;2023-08-30T14:53:37;1.17;;;1.17;;
3704;SDS011;1868;48.918;9.438;2023-08-30T14:56:06;1.77;;;1.07;;
3704;SDS011;1868;48.918;9.438;2023-08-30T14:58:36;2.50;;;0.90;;
3704;SDS011;1868;48.918;9.438;2023-08-30T15:01:09;1.20;;;1.20;;
3704;SDS011;1868;48.918;9.438;2023-08-30T15:03:38;1.07;;;1.07;;
3704;SDS011;1868;48.918;9.438;2023-08-30T15:06:08;1.30;;;1.20;;
3704;SDS011;1868;48.918;9.438;2023-08-30T15:08:39;0.87;;;0.83;;
3704;SDS011;1868;48.918;9.438;2023-08-30T15:11:09;1.50;;;1.40;;
3704;SDS011;1868;48.918;9.438;2023-08-30T15:13:41;0.90;;;0.90;;
3704;SDS011;1868;48.918;9.438;2023-08-30T15:16:10;1.10;;;1.07;;
3704;SDS011;1868;48.918;9.438;2023-08-30T15:18:41;1.10;;;1.00;;
3704;SDS011;1868;48.918;9.438;2023-08-30T15:21:12;0.70;;;0.70;;
3704;SDS011;1868;48.918;9.438;2023-08-30T15:23:46;1.40;;;1.30;;
3704;SDS011;1868;48.918;9.438;2023-08-30T15:26:21;1.90;;;1.30;;
3704;SDS011;1868;48.918;9.438;2023-08-30T15:28:54;1.27;;;1.20;;
3704;SDS011;1868;48.918;9.438;2023-08-30T15:31:23;1.07;;;0.87;;
3704;SDS011;1868;48.918;9.438;2023-08-30T15:33:52;1.33;;;1.00;;
3704;SDS011;1868;48.918;9.438;2023-08-30T15:36:20;1.00;;;0.90;;
3704;SDS011;1868;48.918;9.438;2023-08-30T15:38:50;1.23;;;0.90;;
3704;SDS011;1868;48.918;9.438;2023-08-30T15:41:20;0.90;;;0.80;;
3704;SDS011;1868;48.918;9.438;2023-08-30T15:43:49;1.43;;;1.23;;
3704;SDS011;1868;48.918;9.438;2023-08-30T15:46:22;1.30;;;1.03;;
3704;SDS011;1868;48.918;9.438;2023-08-30T15:48:50;1.07;;;1.00;;
3704;SDS011;1868;48.918;9.438;2023-08-30T15:51:21;0.90;;;0.90;;
3704;SDS011;1868;48.918;9.438;2023-08-30T15:53:52;0.93;;;0.93;;
3704;SDS011;1868;48.918;9.438;2023-08-30T15:56:22;1.20;;;1.20;;
3704;SDS011;1868;48.918;9.438;2023-08-30T15:58:51;1.67;;;1.00;;
3704;SDS011;1868;48.918;9.438;2023-08-30T16:01:21;1.00;;;1.00;;
3704;SDS011;1868;48.918;9.438;2023-08-30T16:03:50;3.80;;;1.33;;
3704;SDS011;1868;48.918;9.438;2023-08-30T16:06:21;1.27;;;1.07;;
3704;SDS011;1868;48.918;9.438;2023-08-30T16:08:50;1.00;;;1.00;;
3704;SDS011;1868;48.918;9.438;2023-08-30T16:11:20;1.27;;;1.10;;
3704;SDS011;1868;48.918;9.438;2023-08-30T16:13:49;1.20;;;1.20;;
3704;SDS011;1868;48.918;9.438;2023-08-30T16:16:18;1.37;;;1.27;;
3704;SDS011;1868;48.918;9.438;2023-08-30T16:18:50;2.13;;;1.53;;
3704;SDS011;1868;48.918;9.438;2023-08-30T16:21:19;1.50;;;1.40;;
3704;SDS011;1868;48.918;9.438;2023-08-30T16:23:48;1.53;;;1.20;;
3704;SDS011;1868;48.918;9.438;2023-08-30T16:26:17;1.20;;;1.20;;
3704;SDS011;1868;48.918;9.438;2023-08-30T16:28:47;1.40;;;1.30;;
3704;SDS011;1868;48.918;9.438;2023-08-30T16:31:16;1.40;;;1.30;;